Trail des Zafters (Goé)
Trail des Zafters (Goé) 18/03/2017 - 14 km
Mise à jour le : 19/03/2017 à 17:07
Classement définitif, aucune correction possible
Place Nom Prénom Dossard Temps Vitesse Allure Place. Cat. Catégorie
1 MICHEL LUC 37 48:54 17,18 3:29 1 Séniors
2 WIERTZ XAVIER 103 48:55 17,17 3:29 2 Séniors
3 STOLLENBERG JORDI 95 49:18 17,04 3:31 3 Séniors
4 KALK NILS 8 49:21 17,02 3:31 4 Séniors
5 DEJALLE GAETAN 58 54:04 15,53 3:51 5 Séniors
6 LARSILLE KEVIN 94 56:45 14,80 4:03 6 Séniors
7 BERTHOLET CHRISTOPHE 28 58:25 14,38 4:10 7 Séniors
8 BARTHOLÉMY THIERRY 32 58:28 14,36 4:10 1 Vétérans 1
9 DEMONCEAU JEAN LUC 55 1:02:47 13,38 4:29 1 Vétérans 2
10 JANDRAIN FRANÇOIS 100 1:03:53 13,15 4:33 2 Vétérans 1
11 GOMZÉ MICHEL 18 1:04:02 13,12 4:34 2 Vétérans 2
12 HUPPERETZ PATRICK 68 1:04:24 13,04 4:36 8 Séniors
13 GENREITH VINCENT 40 1:04:28 13,03 4:36 3 Vétérans 1
14 HERCOT PIERRE LUC 78 1:05:14 12,87 4:39 9 Séniors
15 LECLERCQ JORDAN 43 1:05:28 12,83 4:40 10 Séniors
16 VANDERHEYDEN VALENTIN 15 1:05:35 12,81 4:41 11 Séniors
17 FRANCOIS JORDAN 35 1:05:35 12,80 4:41 12 Séniors
18 BEUKEN SERGE 27 1:05:43 12,78 4:41 3 Vétérans 2
19 D'AFFNAY JEAN-FRANÇOIS 85 1:06:06 12,71 4:43 13 Séniors
20 MICHELIS FRANCOIS 11 1:07:41 12,41 4:50 14 Séniors
21 THOMSON GERALD 79 1:09:51 12,02 4:59 4 Vétérans 1
22 ROYEN AURELIEN 82 1:09:53 12,02 4:59 15 Séniors
23 URLINGS FLORIAN 123 1:10:08 11,98 5:00 16 Séniors
24 VONDENHOFF ALAIN 16 1:10:43 11,88 5:03 17 Séniors
25 WEUSTEN CEDRIC 102 1:11:12 11,80 5:05 18 Séniors
26 STEINBUSCH VINCENT 114 1:11:45 11,71 5:07 5 Vétérans 1
27 LEMAIRE GUILLAUME 113 1:11:55 11,68 5:08 19 Séniors
28 GOMBOSO MARC 4 1:12:16 11,62 5:09 1 Vétérans 3
29 BOGAERT CHARLY 1 1:12:22 11,61 5:10 4 Vétérans 2
30 SCYSMANS MARTIN 61 1:12:28 11,59 5:10 5 Vétérans 2
31 HAGELSTEIN JEREMY 107 1:12:33 11,58 5:10 20 Séniors
32 THIELEN ALAIN 83 1:13:05 11,49 5:13 6 Vétérans 1
33 SCHNAKERS ARNAUD 110 1:13:46 11,39 5:16 21 Séniors
34 SCHMETZ ROLAND 81 1:14:50 11,22 5:20 7 Vétérans 1
35 OUTMANNS JEREMY 64 1:15:47 11,08 5:24 22 Séniors
36 LECLERE SEBASTIEN 9 1:15:48 11,08 5:24 23 Séniors
37 ORBAN SARAH 12 1:15:58 11,06 5:25 1 Dames
38 DELARGE PATRICK 39 1:15:59 11,05 5:25 24 Séniors
39 BEYER THOMAS 36 1:16:49 10,93 5:29 25 Séniors
40 GEIEBENNE OLIVIER 62 1:17:03 10,90 5:30 26 Séniors
41 BRAGARD ALEXANDRE 2 1:17:05 10,90 5:30 27 Séniors
42 BOROWIAK ALAIN 22 1:17:22 10,86 5:31 8 Vétérans 1
43 HALLEUX JEAN MARIE 6 1:17:32 10,83 5:32 9 Vétérans 1
44 PIRONT CHRISTIAN 115 1:17:49 10,79 5:33 28 Séniors
45 SICIM MUSTAFA 101 1:18:17 10,73 5:35 10 Vétérans 1
46 GENDRON DAPHNEE 38 1:18:26 10,71 5:36 0 F Sans Cat
47 RENNOTTE RAPHAEL 97 1:18:44 10,67 5:37 11 Vétérans 1
48 SCHYNS BENOIT 105 1:18:53 10,65 5:38 29 Séniors
49 SEVRIN FREDERIC 23 1:19:17 10,59 5:39 12 Vétérans 1
50 REUCHAMPS RÉGINE 88 1:19:20 10,59 5:40 1 Ainées 2
51 RADERMECKER ISABELLE 80 1:19:33 10,56 5:40 1 Ainées 1
52 BEUKEN DIDIER 29 1:19:48 10,52 5:42 6 Vétérans 2
53 DEBATY JULIE 112 1:20:01 10,50 5:42 2 Ainées 1
54 VAN HECKE MICHEL 14 1:20:13 10,47 5:43 13 Vétérans 1
55 HOCK MICHAEL 7 1:20:39 10,41 5:45 30 Séniors
56 GOHY BENOIT 116 1:21:51 10,26 5:50 31 Séniors
57 DETRY JEAN POL 108 1:22:00 10,24 5:51 14 Vétérans 1
58 THISSEN FREDERICK 109 1:22:06 10,23 5:51 15 Vétérans 1
59 LEFIN PASCALE 125 1:22:39 10,16 5:54 0 F Sans Cat
60 HENNEN THIEBAUT 124 1:22:45 10,15 5:54 32 Séniors
61 BURLEON QUENTIN 104 1:22:52 10,14 5:55 33 Séniors
62 NIBUS FELICIEN 96 1:23:01 10,12 5:55 34 Séniors
63 BONHEMME LAURENCE 84 1:23:19 10,08 5:57 2 Ainées 2
64 DEWALLEF PASCAL 86 1:23:19 10,08 5:57 16 Vétérans 1
65 JESINGHAUS VERA 24 1:23:23 10,07 5:57 3 Ainées 1
66 DAUBY ELISABETH 117 1:23:47 10,02 5:59 2 Dames
67 PIRLOT BERNARD 63 1:23:57 10,01 5:59 35 Séniors
68 DEA??? PIETER 118 1:24:05 9,99 6:00 36 Séniors
69 DEVILLE YVES 87 1:24:30 9,94 6:02 7 Vétérans 2
70 COBBEN SYLVAIN 90 1:24:35 9,93 6:02 37 Séniors
71 CIARNIELLO FREDERIC 69 1:24:36 9,93 6:02 38 Séniors
72 AHN VALERIE 60 1:24:41 9,92 6:02 3 Dames
73 LESPIRE STEVE 59 1:24:50 9,90 6:03 39 Séniors
74 BALTUS JOSE 54 1:24:51 9,90 6:03 2 Vétérans 3
75 BASTIN ISABELLE 34 1:24:52 9,90 6:03 3 Ainées 2
76 OHN ROLAND 89 1:24:57 9,89 6:04 8 Vétérans 2
77 DENOEL ALINE 92 1:25:02 9,88 6:04 4 Ainées 1
78 MAWET NATHALIE 10 1:25:11 9,86 6:05 4 Ainées 2
79 BADENBERG BERNARD 120 1:25:52 9,78 6:08 17 Vétérans 1
80 HENRARD HERVE 31 1:26:10 9,75 6:09 40 Séniors
81 MARQUET RENE 93 1:26:27 9,72 6:10 18 Vétérans 1
82 BIBERSZTEIN STEFAN 122 1:26:29 9,71 6:10 9 Vétérans 2
83 DETHIER ALAIN 21 1:27:14 9,63 6:13 10 Vétérans 2
84 DELREZ SANDRA 17 1:27:16 9,63 6:14 5 Ainées 2
85 DESSAUCY QUENTIN 76 1:27:19 9,62 6:14 41 Séniors
86 LARBUISSON JESSICA 77 1:27:20 9,62 6:14 4 Dames
87 DAUBY PHILIPPE 119 1:27:32 9,59 6:15 3 Vétérans 3
88 HAVENITH CHARLOTTE 45 1:27:38 9,58 6:15 5 Dames
89 SCHOBEN LAURENT 121 1:27:48 9,57 6:16 19 Vétérans 1
90 NYSSEN EMILIE 66 1:27:50 9,56 6:16 6 Dames
91 PAROTTE AURORE 67 1:27:54 9,56 6:16 7 Dames
92 LEGROS FRANÇIS 42 1:28:04 9,54 6:17 20 Vétérans 1
93 DELWAIDE ANNE 52 1:28:11 9,53 6:17 1 Ainées 3
94 CALMANT PHILIPPE 53 1:28:42 9,47 6:20 21 Vétérans 1
95 FRANCE MICHEL 49 1:28:44 9,47 6:20 22 Vétérans 1
96 WILLEM MARIE 98 1:28:46 9,46 6:20 6 Ainées 2
97 LINCE FRANCOISE 99 1:28:47 9,46 6:20 5 Ainées 1
98 WEICKMANS DAVID 106 1:29:24 9,40 6:23 42 Séniors
99 NADENOEN OLIVIER 91 1:29:31 9,38 6:23 23 Vétérans 1
100 THIRION LUC 57 1:29:32 9,38 6:23 24 Vétérans 1
101 CLAESSEN ANDRE 74 1:30:09 9,32 6:26 11 Vétérans 2
102 DAELEN VINCENT 56 1:30:11 9,31 6:26 25 Vétérans 1
103 MONTE MAGALI 70 1:30:46 9,25 6:29 8 Dames
104 DORMAL CATHERINE 72 1:31:20 9,20 6:31 6 Ainées 1
105 DELHEZ DOMINIQUE 41 1:32:26 9,09 6:36 7 Ainées 1
106 PIRENNE ANNICK 111 1:32:30 9,08 6:36 8 Ainées 1
107 HUIJNEN LUC 50 1:34:13 8,91 6:43 26 Vétérans 1
108 DESMET AURELIEN 71 1:34:32 8,88 6:45 43 Séniors
109 BOURGARD GREGORY 73 1:34:32 8,88 6:45 44 Séniors
110 SIMONIS NADIA 51 1:36:01 8,75 6:51 9 Dames
111 BLEYFUESZ THIBAUT 25 1:37:03 8,65 6:55 45 Séniors
112 SCHOONBROODT DOMINIQUE 13 1:38:06 8,56 7:00 7 Ainées 2
113 CHARLIER ANNE-CATHERINE 3 1:42:07 8,23 7:17 10 Dames
114 BUVENS MURIELLE 30 1:42:25 8,20 7:18 8 Ainées 2
115 GRONDAL CHRISTINE 5 1:42:25 8,20 7:18 9 Ainées 2
116 BOSCO VALERIE 47 1:44:16 8,06 7:26 9 Ainées 1
117 PIRARD OLIVIER 75 1:44:32 8,04 7:28 46 Séniors
118 FRISÉE MARIETTE 46 1:44:52 8,01 7:29 2 Ainées 3
119 FRISEE SEBASTIEN 44 1:44:59 8,00 7:29 47 Séniors
120 DENARD MARC 26 1:45:21 7,97 7:31 4 Vétérans 3
121 NICHELS DANIELLE 65 1:45:59 7,93 7:34 3 Ainées 3
122 LANSCH LAURENCE 20 1:48:14 7,76 7:43 10 Ainées 1
123 ONNAU SERGE 19 1:48:16 7,76 7:44 27 Vétérans 1